Historical Weather Data

Soule Park Golf Course
1033 East Ojai Ave
Ojai, CA 93023
Date ET
(Inches)
Rain
(Inches)
Temp °F
Humidity
Avg
Wind MPH
Avg
Solar Wm2
Avg
High Ave Low
6/1/18 0.22 0.00 78.2 63.4 45.8 66 2.4 350
6/2/18 0.24 0.00 85.2 68.8 49.7 58 2.6 351
6/3/18 0.25 0.00 90.8 71.1 51.0 60 2.5 357
6/4/18 0.24 0.00 88.2 68.1 53.5 69 2.7 349
6/5/18 0.16 0.00 76.1 62.2 52.9 82 2.5 261
6/6/18 0.15 0.00 73.9 61.4 52.4 80 2.3 250
6/7/18 0.21 0.00 77.7 63.6 48.6 71 2.6 339
6/8/18 0.24 0.00 88.5 70.0 49.6 58 2.3 349
6/9/18 0.24 0.00 86.2 69.1 50.9 60 2.4 347
6/10/18 0.24 0.00 85.8 69.7 50.6 51 2.4 353
6/11/18 0.26 0.00 91.0 72.1 51.2 46 2.4 352
6/12/18 0.25 0.00 90.9 72.8 53.3 55 2.1 352
6/13/18 0.25 0.00 92.1 72.8 53.8 57 2.2 353
6/14/18 0.24 0.00 92.5 71.0 54.1 60 2.3 345
6/15/18 0.22 0.00 85.2 68.3 53.0 63 2.3 322
6/16/18 0.07 0.00 70.2 61.1 51.8 80 2.1 102
6/17/18 0.06 0.01 64.1 59.7 56.3 79 1.7 78
6/18/18 0.22 0.00 75.9 64.1 51.7 68 2.4 348
6/19/18 0.23 0.00 84.1 66.4 48.1 69 2.5 349
6/20/18 0.24 0.00 89.0 68.4 50.1 69 2.6 347
6/21/18 0.23 0.00 86.3 67.5 53.6 73 2.4 344
6/22/18 0.22 0.00 86.3 67.5 54.3 74 2.3 327
6/23/18 0.19 0.00 78.8 64.9 53.6 80 2.7 314
6/24/18 0.20 0.00 79.1 67.0 55.5 73 2.7 312
6/25/18 0.21 0.00 85.3 68.0 54.5 68 2.3 320
6/26/18 0.22 0.00 86.2 68.6 52.1 67 2.3 327
6/27/18 0.23 0.00 86.8 69.0 54.1 67 2.6 343
6/28/18 0.21 0.00 82.4 66.4 53.1 72 2.6 318
6/29/18 0.17 0.00 76.0 64.0 51.7 75 2.5 271
6/30/18 0.21 0.00 79.9 67.0 54.1 73 2.6 317